Time;durP1;ratioP1;P1;durP2;ratioP2;P2;SDS_P1;SDS_P2;PMS_P1;PMS_P2;Temp;Humidity;BMP_temperature;BMP_pressure;BME280_temperature;BME280_humidity;BME280_pressure;Samples;Min_cycle;Max_cycle;Signal;HPM_P1;HPM_P2
2022/06/19 00:00:17;;;;;;;0.80;0.80;;;;;;;;;;5114948;28;20019;-83
2022/06/19 00:02:44;;;;;;;2.30;1.00;;;;;;;;;;5115523;28;20472;-82
2022/06/19 00:05:11;;;;;;;1.10;0.90;;;;;;;;;;5115349;28;20479;-84
2022/06/19 00:07:36;;;;;;;1.10;1.00;;;;;;;;;;5110806;28;20035;-85
2022/06/19 00:10:04;;;;;;;0.80;0.80;;;;;;;;;;5112741;28;20040;-83
2022/06/19 00:12:29;;;;;;;0.90;0.90;;;;;;;;;;5112856;28;20027;-82
2022/06/19 00:14:55;;;;;;;1.00;0.90;;;;;;;;;;5096355;28;20039;-84
2022/06/19 00:17:20;;;;;;;0.63;0.63;;;;;;;;;;5095696;28;20115;-82
2022/06/19 00:19:46;;;;;;;1.20;1.00;;;;;;;;;;5111216;28;20026;-85
2022/06/19 00:22:11;;;;;;;0.80;0.80;;;;;;;;;;5104293;28;20367;-85
2022/06/19 00:24:36;;;;;;;1.10;0.90;;;;;;;;;;5114159;28;20075;-82
2022/06/19 00:27:02;;;;;;;0.88;0.88;;;;;;;;;;5113463;28;20031;-83
2022/06/19 00:29:28;;;;;;;1.60;0.98;;;;;;;;;;5113559;28;20483;-83
2022/06/19 00:31:54;;;;;;;1.13;0.80;;;;;;;;;;5109474;28;20026;-84
2022/06/19 00:34:21;;;;;;;1.00;0.90;;;;;;;;;;5093267;28;20023;-84
2022/06/19 00:36:49;;;;;;;1.17;1.08;;;;;;;;;;5114488;28;20123;-83
2022/06/19 00:39:19;;;;;;;1.80;1.00;;;;;;;;;;5096126;28;20050;-83
2022/06/19 00:41:45;;;;;;;0.80;0.80;;;;;;;;;;5112872;28;20027;-83
2022/06/19 00:44:13;;;;;;;0.90;0.90;;;;;;;;;;5095869;28;20400;-84
2022/06/19 00:46:48;;;;;;;1.15;1.00;;;;;;;;;;5113085;28;20055;-84
2022/06/19 00:49:18;;;;;;;1.05;0.95;;;;;;;;;;5114059;28;20391;-84
2022/06/19 00:51:44;;;;;;;1.13;1.00;;;;;;;;;;5114430;28;20023;-82
2022/06/19 00:54:13;;;;;;;0.90;0.90;;;;;;;;;;5113305;28;20032;-82
2022/06/19 00:56:39;;;;;;;1.42;1.15;;;;;;;;;;5114221;28;20102;-83
2022/06/19 00:59:06;;;;;;;1.10;1.00;;;;;;;;;;5113458;28;20035;-85
2022/06/19 01:01:31;;;;;;;1.77;0.88;;;;;;;;;;5102076;28;20024;-84
2022/06/19 01:04:17;;;;;;;0.95;0.90;;;;;;;;;;5110688;28;20034;-84
2022/06/19 01:06:42;;;;;;;1.25;1.15;;;;;;;;;;5113350;28;20031;-84
2022/06/19 01:09:08;;;;;;;1.00;1.00;;;;;;;;;;5106350;28;20027;-83
2022/06/19 01:11:37;;;;;;;1.45;1.00;;;;;;;;;;5113413;28;20023;-82
2022/06/19 01:14:05;;;;;;;0.90;0.90;;;;;;;;;;5112917;28;20046;-83
2022/06/19 01:16:31;;;;;;;0.90;0.90;;;;;;;;;;5113293;28;20130;-82
2022/06/19 01:18:59;;;;;;;0.80;0.80;;;;;;;;;;5112117;28;20047;-84
2022/06/19 01:21:37;;;;;;;1.25;1.10;;;;;;;;;;5112454;28;20463;-83
2022/06/19 01:24:27;;;;;;;1.45;0.95;;;;;;;;;;5113246;28;20501;-83
2022/06/19 01:26:59;;;;;;;0.98;0.90;;;;;;;;;;5109502;28;20027;-84
2022/06/19 01:29:27;;;;;;;2.97;1.10;;;;;;;;;;5110906;28;20031;-83
2022/06/19 01:31:55;;;;;;;0.90;0.90;;;;;;;;;;5095483;28;20452;-82
2022/06/19 01:34:32;;;;;;;1.30;1.00;;;;;;;;;;5094234;28;20106;-82
2022/06/19 01:37:25;;;;;;;1.02;0.82;;;;;;;;;;5113162;28;20012;-83
2022/06/19 01:39:56;;;;;;;0.80;0.80;;;;;;;;;;5108087;28;20022;-83
2022/06/19 01:42:22;;;;;;;0.80;0.80;;;;;;;;;;5112621;28;20129;-83
2022/06/19 01:44:50;;;;;;;1.08;0.98;;;;;;;;;;5094594;28;20024;-84
2022/06/19 01:47:16;;;;;;;1.00;0.90;;;;;;;;;;5113247;28;20038;-84
2022/06/19 01:49:48;;;;;;;0.98;0.80;;;;;;;;;;5112748;28;20028;-84
2022/06/19 01:52:15;;;;;;;1.58;0.80;;;;;;;;;;5094260;28;20076;-83
2022/06/19 01:54:48;;;;;;;0.73;0.73;;;;;;;;;;5111024;28;20514;-84
2022/06/19 01:57:16;;;;;;;1.00;0.90;;;;;;;;;;5094174;28;20357;-83
2022/06/19 01:59:43;;;;;;;0.70;0.70;;;;;;;;;;5110542;28;20031;-83
2022/06/19 02:02:12;;;;;;;1.10;1.00;;;;;;;;;;5112924;28;20032;-83
2022/06/19 02:04:38;;;;;;;0.70;0.70;;;;;;;;;;5102375;28;20039;-84
2022/06/19 02:07:10;;;;;;;1.38;0.90;;;;;;;;;;5108269;28;20396;-83
2022/06/19 02:09:36;;;;;;;0.90;0.75;;;;;;;;;;5112439;28;20042;-85
2022/06/19 02:12:03;;;;;;;1.00;0.90;;;;;;;;;;5112557;28;20027;-83
2022/06/19 02:14:30;;;;;;;1.00;0.90;;;;;;;;;;5107265;28;20391;-84
2022/06/19 02:16:56;;;;;;;0.88;0.88;;;;;;;;;;5093218;28;20020;-84
2022/06/19 02:19:21;;;;;;;1.13;0.90;;;;;;;;;;5110543;28;20379;-84
2022/06/19 02:21:51;;;;;;;1.45;0.80;;;;;;;;;;5112084;28;20098;-83
2022/06/19 02:24:20;;;;;;;1.27;0.88;;;;;;;;;;5112183;28;20050;-84
2022/06/19 02:26:48;;;;;;;0.70;0.70;;;;;;;;;;5109976;28;20028;-83
2022/06/19 02:29:16;;;;;;;1.02;0.80;;;;;;;;;;5107337;28;20023;-83
2022/06/19 02:31:44;;;;;;;0.90;0.88;;;;;;;;;;5111924;28;20482;-83
2022/06/19 02:34:38;;;;;;;0.95;0.80;;;;;;;;;;5112370;28;20110;-83
2022/06/19 02:37:17;;;;;;;1.08;0.98;;;;;;;;;;5091687;28;20024;-82
2022/06/19 02:39:55;;;;;;;1.58;0.70;;;;;;;;;;5093460;28;20041;-85
2022/06/19 02:42:20;;;;;;;1.75;0.90;;;;;;;;;;5089654;28;20032;-83
2022/06/19 02:44:52;;;;;;;0.80;0.80;;;;;;;;;;5112205;28;20156;-85
2022/06/19 02:47:18;;;;;;;1.00;0.95;;;;;;;;;;5106468;28;20459;-84
2022/06/19 02:49:44;;;;;;;2.10;0.85;;;;;;;;;;5094245;28;20085;-85
2022/06/19 02:52:12;;;;;;;0.70;0.70;;;;;;;;;;5110137;28;20102;-84
2022/06/19 02:54:37;;;;;;;1.27;0.90;;;;;;;;;;5109384;28;20028;-84
2022/06/19 02:57:04;;;;;;;1.90;0.90;;;;;;;;;;5106089;28;20026;-84
2022/06/19 02:59:30;;;;;;;0.80;0.80;;;;;;;;;;5111833;28;20383;-86
2022/06/19 03:01:55;;;;;;;1.10;1.00;;;;;;;;;;5111870;28;20038;-84
2022/06/19 03:04:24;;;;;;;0.80;0.80;;;;;;;;;;5111489;28;20034;-84
2022/06/19 03:06:50;;;;;;;0.93;0.90;;;;;;;;;;5111485;28;20019;-85
2022/06/19 03:09:16;;;;;;;1.10;0.82;;;;;;;;;;5110967;28;20263;-84
2022/06/19 03:11:42;;;;;;;1.60;0.90;;;;;;;;;;5111854;28;20091;-84
2022/06/19 03:14:08;;;;;;;0.70;0.70;;;;;;;;;;5111195;28;20360;-84
2022/06/19 03:16:33;;;;;;;1.92;0.75;;;;;;;;;;5112073;28;20019;-84
2022/06/19 03:18:59;;;;;;;0.90;0.70;;;;;;;;;;5092755;28;20020;-84
2022/06/19 03:21:25;;;;;;;1.65;0.93;;;;;;;;;;5111496;28;20024;-85
2022/06/19 03:23:50;;;;;;;1.45;0.98;;;;;;;;;;5106683;28;20031;-83
2022/06/19 03:26:16;;;;;;;1.13;0.90;;;;;;;;;;5106946;28;20089;-83
2022/06/19 03:28:41;;;;;;;0.80;0.80;;;;;;;;;;5111826;28;20502;-83
2022/06/19 03:31:07;;;;;;;1.42;0.88;;;;;;;;;;5111783;28;20418;-83
2022/06/19 03:33:32;;;;;;;0.80;0.70;;;;;;;;;;5089961;28;20146;-83
2022/06/19 03:35:58;;;;;;;1.00;1.00;;;;;;;;;;5093677;28;20015;-83
2022/06/19 03:38:23;;;;;;;0.80;0.80;;;;;;;;;;5111229;28;20063;-83
2022/06/19 03:40:49;;;;;;;1.25;0.85;;;;;;;;;;5111586;28;20118;-84
2022/06/19 03:43:14;;;;;;;0.90;0.80;;;;;;;;;;5109947;28;20049;-83
2022/06/19 03:45:40;;;;;;;0.90;0.90;;;;;;;;;;5111226;28;20023;-83
2022/06/19 03:48:06;;;;;;;1.90;0.93;;;;;;;;;;5111310;28;20024;-83
2022/06/19 03:50:32;;;;;;;0.80;0.80;;;;;;;;;;5109646;28;20057;-84
2022/06/19 03:52:57;;;;;;;0.73;0.73;;;;;;;;;;5093466;28;20023;-84
2022/06/19 03:55:23;;;;;;;1.25;0.90;;;;;;;;;;5110164;28;20118;-83
2022/06/19 03:57:48;;;;;;;1.20;0.98;;;;;;;;;;5110463;28;20490;-83
2022/06/19 04:00:17;;;;;;;0.93;0.82;;;;;;;;;;5111354;28;20578;-84
2022/06/19 04:02:43;;;;;;;0.90;0.90;;;;;;;;;;5091040;28;20035;-83
2022/06/19 04:05:12;;;;;;;1.27;1.10;;;;;;;;;;5111806;28;20032;-83
2022/06/19 04:07:49;;;;;;;1.27;1.17;;;;;;;;;;5109855;28;20024;-85
2022/06/19 04:10:18;;;;;;;0.98;0.95;;;;;;;;;;5110683;28;20379;-85
2022/06/19 04:12:43;;;;;;;1.23;1.13;;;;;;;;;;5101619;28;20069;-85
2022/06/19 04:15:11;;;;;;;1.48;1.30;;;;;;;;;;5111229;28;20072;-84
2022/06/19 04:17:37;;;;;;;1.20;1.10;;;;;;;;;;5110143;28;20459;-85
2022/06/19 04:20:04;;;;;;;1.52;1.40;;;;;;;;;;5104543;28;20030;-83
2022/06/19 04:22:29;;;;;;;1.40;1.30;;;;;;;;;;5095192;28;20019;-83
2022/06/19 04:24:55;;;;;;;1.30;1.20;;;;;;;;;;5114419;28;20084;-85
2022/06/19 04:27:20;;;;;;;1.75;1.50;;;;;;;;;;5094336;28;20408;-83
2022/06/19 04:29:46;;;;;;;2.38;1.48;;;;;;;;;;5096164;28;20387;-86
2022/06/19 04:32:12;;;;;;;1.40;1.30;;;;;;;;;;5096731;28;20054;-84
2022/06/19 04:34:38;;;;;;;1.92;1.70;;;;;;;;;;5114433;28;20034;-83
2022/06/19 04:37:03;;;;;;;2.08;1.88;;;;;;;;;;5113913;28;20016;-83
2022/06/19 04:39:29;;;;;;;2.72;2.13;;;;;;;;;;5112968;28;20391;-84
2022/06/19 04:41:54;;;;;;;2.00;1.75;;;;;;;;;;5096116;28;20019;-83
2022/06/19 04:44:20;;;;;;;2.25;2.05;;;;;;;;;;5096065;28;20061;-83
2022/06/19 04:46:46;;;;;;;2.20;2.00;;;;;;;;;;5112208;28;20031;-84
2022/06/19 04:49:13;;;;;;;2.22;2.00;;;;;;;;;;5113995;28;20028;-83
2022/06/19 04:51:39;;;;;;;2.20;1.95;;;;;;;;;;5112813;28;20368;-83
2022/06/19 04:54:04;;;;;;;2.65;2.22;;;;;;;;;;5112926;28;20030;-82
2022/06/19 04:56:30;;;;;;;4.07;2.55;;;;;;;;;;5092085;28;20020;-84
2022/06/19 04:58:55;;;;;;;2.38;2.17;;;;;;;;;;5110874;28;20030;-83
2022/06/19 05:01:29;;;;;;;1.98;1.83;;;;;;;;;;5096024;28;20058;-85
2022/06/19 05:04:00;;;;;;;2.35;1.80;;;;;;;;;;5113486;28;20027;-84
2022/06/19 05:06:26;;;;;;;2.88;1.88;;;;;;;;;;5095733;28;20040;-83
2022/06/19 05:08:53;;;;;;;2.45;2.25;;;;;;;;;;5113342;28;20383;-83
2022/06/19 05:11:19;;;;;;;2.20;2.00;;;;;;;;;;5093919;28;20055;-84
2022/06/19 05:13:45;;;;;;;3.38;2.38;;;;;;;;;;5111798;28;20499;-85
2022/06/19 05:16:13;;;;;;;2.70;2.30;;;;;;;;;;5086787;28;20020;-83
2022/06/19 05:18:39;;;;;;;2.47;2.15;;;;;;;;;;5112249;28;20547;-85
2022/06/19 05:21:05;;;;;;;3.95;2.30;;;;;;;;;;5096994;28;20019;-85
2022/06/19 05:23:35;;;;;;;2.33;2.05;;;;;;;;;;5112960;28;20533;-84
2022/06/19 05:26:04;;;;;;;2.53;1.90;;;;;;;;;;5108924;28;20024;-85
2022/06/19 05:28:31;;;;;;;2.97;1.90;;;;;;;;;;5113329;28;20485;-84
2022/06/19 05:30:58;;;;;;;2.28;2.00;;;;;;;;;;5092188;28;20043;-85
2022/06/19 05:33:24;;;;;;;2.33;2.00;;;;;;;;;;5093286;28;20464;-83
2022/06/19 05:35:50;;;;;;;1.90;1.65;;;;;;;;;;5108531;28;20145;-81
2022/06/19 05:38:15;;;;;;;2.15;1.75;;;;;;;;;;5093142;28;20039;-83
2022/06/19 05:40:41;;;;;;;1.73;1.60;;;;;;;;;;5103580;28;20447;-85
2022/06/19 05:43:08;;;;;;;3.35;2.00;;;;;;;;;;5091713;28;20550;-84
2022/06/19 05:45:33;;;;;;;3.65;2.30;;;;;;;;;;5110999;28;20046;-86
2022/06/19 05:47:58;;;;;;;2.80;2.13;;;;;;;;;;5111771;28;20020;-84
2022/06/19 05:50:24;;;;;;;2.42;2.22;;;;;;;;;;5111741;28;20034;-85
2022/06/19 05:52:49;;;;;;;2.45;2.10;;;;;;;;;;5092158;28;20035;-85
2022/06/19 05:55:15;;;;;;;3.00;2.30;;;;;;;;;;5112952;28;20019;-86
2022/06/19 05:57:40;;;;;;;2.35;2.15;;;;;;;;;;5112848;28;20055;-85
2022/06/19 06:00:08;;;;;;;1.88;1.77;;;;;;;;;;5112421;28;20106;-85
2022/06/19 06:02:35;;;;;;;2.10;1.90;;;;;;;;;;5112745;28;20407;-86
2022/06/19 06:05:02;;;;;;;3.30;1.80;;;;;;;;;;5112011;28;20042;-84
2022/06/19 06:07:27;;;;;;;1.80;1.50;;;;;;;;;;5094089;28;20046;-86
2022/06/19 06:09:53;;;;;;;1.52;1.42;;;;;;;;;;5110529;28;20391;-84
2022/06/19 06:12:19;;;;;;;1.52;1.33;;;;;;;;;;5091590;28;20137;-83
2022/06/19 06:14:44;;;;;;;1.30;1.20;;;;;;;;;;5092268;28;20122;-83
2022/06/19 06:17:10;;;;;;;1.40;1.10;;;;;;;;;;5108677;28;20077;-82
2022/06/19 06:19:35;;;;;;;0.80;0.80;;;;;;;;;;5108231;28;20024;-82
2022/06/19 06:22:02;;;;;;;1.58;1.00;;;;;;;;;;5110364;28;20058;-84
2022/06/19 06:24:28;;;;;;;2.08;0.82;;;;;;;;;;5108210;28;20036;-85
2022/06/19 06:26:54;;;;;;;1.33;0.60;;;;;;;;;;5094205;28;20020;-85
2022/06/19 06:29:20;;;;;;;0.90;0.90;;;;;;;;;;5112709;28;20031;-84
2022/06/19 06:31:49;;;;;;;1.17;0.93;;;;;;;;;;5112777;28;20484;-84
2022/06/19 06:34:14;;;;;;;0.80;0.80;;;;;;;;;;5112195;28;20038;-83
2022/06/19 06:36:40;;;;;;;0.90;0.88;;;;;;;;;;5111664;28;20023;-82
2022/06/19 06:39:05;;;;;;;0.60;0.60;;;;;;;;;;5092960;28;20578;-82
2022/06/19 06:41:31;;;;;;;3.55;1.00;;;;;;;;;;5107969;28;20529;-83
2022/06/19 06:43:56;;;;;;;0.50;0.50;;;;;;;;;;5111563;28;20547;-82
2022/06/19 06:46:24;;;;;;;0.93;0.40;;;;;;;;;;5111304;28;20080;-83
2022/06/19 06:48:53;;;;;;;0.55;0.40;;;;;;;;;;5111366;28;20462;-83
2022/06/19 06:51:22;;;;;;;0.40;0.40;;;;;;;;;;5110721;28;21576;-82
2022/06/19 06:53:48;;;;;;;0.43;0.32;;;;;;;;;;5111422;28;20020;-83
2022/06/19 06:56:13;;;;;;;0.60;0.60;;;;;;;;;;5093584;28;20482;-83
2022/06/19 06:58:39;;;;;;;1.30;0.68;;;;;;;;;;5111196;28;20027;-82
2022/06/19 07:01:10;;;;;;;0.50;0.50;;;;;;;;;;5110444;28;20094;-83
2022/06/19 07:03:36;;;;;;;0.50;0.35;;;;;;;;;;5093288;28;20023;-84
2022/06/19 07:06:02;;;;;;;0.55;0.40;;;;;;;;;;5093112;28;20023;-83
2022/06/19 07:08:28;;;;;;;2.15;1.80;;;;;;;;;;5110916;28;20037;-83
2022/06/19 07:10:53;;;;;;;1.63;1.33;;;;;;;;;;5111010;28;20019;-85
2022/06/19 07:13:19;;;;;;;1.50;1.10;;;;;;;;;;5110586;28;20016;-86
2022/06/19 07:15:44;;;;;;;0.47;0.40;;;;;;;;;;5109807;28;20026;-83
2022/06/19 07:18:11;;;;;;;0.30;0.30;;;;;;;;;;5109650;28;20032;-82
2022/06/19 07:20:37;;;;;;;0.30;0.30;;;;;;;;;;5092616;28;20099;-82
2022/06/19 07:23:04;;;;;;;0.30;0.30;;;;;;;;;;5107298;28;20114;-82
2022/06/19 07:25:30;;;;;;;0.40;0.40;;;;;;;;;;5107755;28;20023;-84
2022/06/19 07:27:55;;;;;;;0.47;0.30;;;;;;;;;;5110054;28;20418;-84
2022/06/19 07:30:26;;;;;;;0.30;0.30;;;;;;;;;;5110921;28;20024;-83
2022/06/19 07:32:55;;;;;;;0.47;0.40;;;;;;;;;;5110885;28;20047;-82
2022/06/19 07:35:21;;;;;;;0.20;0.20;;;;;;;;;;5109156;28;20027;-82
2022/06/19 07:37:47;;;;;;;0.40;0.40;;;;;;;;;;5107043;28;20043;-82
2022/06/19 07:40:15;;;;;;;1.88;0.40;;;;;;;;;;5110088;28;20402;-82
2022/06/19 07:42:42;;;;;;;0.35;0.30;;;;;;;;;;5111036;28;20027;-83
2022/06/19 07:45:08;;;;;;;1.60;0.30;;;;;;;;;;5109177;28;20055;-84
2022/06/19 07:50:17;;;;;;;0.30;0.30;;;;;;;;;;5110792;28;20080;-82
2022/06/19 07:52:48;;;;;;;0.28;0.25;;;;;;;;;;5106281;28;20028;-82
2022/06/19 07:55:17;;;;;;;0.40;0.40;;;;;;;;;;5102016;28;20748;-82
2022/06/19 07:57:43;;;;;;;2.78;2.45;;;;;;;;;;5106386;28;20020;-81
2022/06/19 08:00:16;;;;;;;4.95;4.40;;;;;;;;;;5113656;28;20359;-84
2022/06/19 08:02:45;;;;;;;0.35;0.35;;;;;;;;;;5108428;28;20096;-85
2022/06/19 08:05:12;;;;;;;0.80;0.40;;;;;;;;;;5109828;28;20084;-84
2022/06/19 08:07:39;;;;;;;1.40;0.40;;;;;;;;;;5112940;28;20024;-83
2022/06/19 08:10:06;;;;;;;0.65;0.40;;;;;;;;;;5114016;28;20024;-82
2022/06/19 08:12:31;;;;;;;0.47;0.30;;;;;;;;;;5112872;28;20027;-83
2022/06/19 08:14:57;;;;;;;0.40;0.30;;;;;;;;;;5114015;28;20072;-82
2022/06/19 08:17:22;;;;;;;0.22;0.22;;;;;;;;;;5112219;28;20363;-83
2022/06/19 08:19:48;;;;;;;0.30;0.30;;;;;;;;;;5113672;28;20039;-84
2022/06/19 08:22:13;;;;;;;0.38;0.20;;;;;;;;;;5113564;28;20427;-84
2022/06/19 08:24:39;;;;;;;0.40;0.40;;;;;;;;;;5095482;27;20538;-83
2022/06/19 08:27:25;;;;;;;0.60;0.40;;;;;;;;;;5112192;28;20027;-85
2022/06/19 08:29:50;;;;;;;0.30;0.30;;;;;;;;;;5111660;28;20547;-83
2022/06/19 08:32:15;;;;;;;2.00;0.50;;;;;;;;;;5094906;28;20027;-85
2022/06/19 08:34:41;;;;;;;0.80;0.35;;;;;;;;;;5114521;28;20069;-81
2022/06/19 08:37:09;;;;;;;0.28;0.28;;;;;;;;;;5091939;28;20053;-84
2022/06/19 08:39:36;;;;;;;0.20;0.20;;;;;;;;;;5095686;28;20043;-82
2022/06/19 08:42:43;;;;;;;0.20;0.20;;;;;;;;;;5113782;28;20015;-86
2022/06/19 08:45:11;;;;;;;1.75;1.55;;;;;;;;;;5054721;28;20036;-83
2022/06/19 08:47:36;;;;;;;1.08;0.95;;;;;;;;;;5112213;28;20514;-84
2022/06/19 08:50:33;;;;;;;0.65;0.65;;;;;;;;;;5114626;28;20094;-84
2022/06/19 08:53:17;;;;;;;0.75;0.40;;;;;;;;;;5109271;28;20032;-82
2022/06/19 08:56:05;;;;;;;0.30;0.30;;;;;;;;;;5111665;28;20073;-85
2022/06/19 08:58:41;;;;;;;0.70;0.45;;;;;;;;;;5110051;27;20031;-85
2022/06/19 09:01:31;;;;;;;0.20;0.20;;;;;;;;;;5110474;27;20034;-83
2022/06/19 09:07:04;;;;;;;;;;;;;;;;;;5109037;28;20187;-85
2022/06/19 09:09:47;;;;;;;0.30;0.30;;;;;;;;;;5113093;28;19919;-84
2022/06/19 09:12:40;;;;;;;0.40;0.40;;;;;;;;;;5094481;28;20023;-84
2022/06/19 09:15:17;;;;;;;0.82;0.40;;;;;;;;;;5112009;28;20027;-81
2022/06/19 09:17:55;;;;;;;0.30;0.30;;;;;;;;;;5093673;28;20023;-84
2022/06/19 09:20:40;;;;;;;0.30;0.30;;;;;;;;;;5094815;28;20031;-83
2022/06/19 09:23:11;;;;;;;0.98;0.28;;;;;;;;;;5112060;28;20388;-83
2022/06/19 09:25:55;;;;;;;0.20;0.20;;;;;;;;;;5092305;28;20027;-83
2022/06/19 09:28:39;;;;;;;0.25;0.25;;;;;;;;;;5110761;28;20023;-82
2022/06/19 09:31:34;;;;;;;0.30;0.30;;;;;;;;;;5107193;28;20024;-81
2022/06/19 09:34:11;;;;;;;0.30;0.30;;;;;;;;;;5106580;28;20094;-83
2022/06/19 09:36:51;;;;;;;0.32;0.32;;;;;;;;;;5114192;27;20039;-83
2022/06/19 09:39:33;;;;;;;;;;;;;;;;;;5116316;27;20059;-82
2022/06/19 09:42:29;;;;;;;0.80;0.40;;;;;;;;;;5110059;28;19912;-84
2022/06/19 09:45:07;;;;;;;0.50;0.50;;;;;;;;;;5087886;28;20032;-83
2022/06/19 09:47:57;;;;;;;0.30;0.30;;;;;;;;;;5112856;27;20024;-83
2022/06/19 09:50:49;;;;;;;0.30;0.30;;;;;;;;;;5110681;28;20069;-85
2022/06/19 09:53:37;;;;;;;0.30;0.30;;;;;;;;;;5109314;28;20073;-84
2022/06/19 09:56:14;;;;;;;0.28;0.20;;;;;;;;;;5110964;28;20012;-85
2022/06/19 09:58:50;;;;;;;0.68;0.40;;;;;;;;;;5112741;27;20023;-85
2022/06/19 10:01:15;;;;;;;0.75;0.50;;;;;;;;;;5112247;28;20019;-86
2022/06/19 10:03:45;;;;;;;0.35;0.25;;;;;;;;;;5094562;28;20039;-83
2022/06/19 10:06:18;;;;;;;0.30;0.30;;;;;;;;;;5094434;28;20035;-84
2022/06/19 10:09:04;;;;;;;0.40;0.30;;;;;;;;;;5097452;28;20463;-83
2022/06/19 10:11:41;;;;;;;0.20;0.20;;;;;;;;;;5113468;28;20049;-82
2022/06/19 10:14:25;;;;;;;1.13;0.30;;;;;;;;;;5111994;27;20027;-83
2022/06/19 10:17:31;;;;;;;0.88;0.30;;;;;;;;;;5115534;28;20023;-87
2022/06/19 10:20:12;;;;;;;0.50;0.30;;;;;;;;;;5105918;28;20059;-85
2022/06/19 10:22:50;;;;;;;0.50;0.40;;;;;;;;;;5096118;28;20055;-88
2022/06/19 10:25:34;;;;;;;0.20;0.20;;;;;;;;;;5115703;27;20020;-85
2022/06/19 10:28:51;;;;;;;0.47;0.30;;;;;;;;;;5111799;28;20464;-84
2022/06/19 10:31:49;;;;;;;0.20;0.20;;;;;;;;;;5064062;28;20118;-84
2022/06/19 10:34:17;;;;;;;0.35;0.20;;;;;;;;;;5109699;28;20027;-86
2022/06/19 10:37:10;;;;;;;0.30;0.30;;;;;;;;;;5094554;28;20020;-85
2022/06/19 10:39:59;;;;;;;1.05;0.20;;;;;;;;;;5093646;28;20035;-87
2022/06/19 10:43:02;;;;;;;1.38;0.30;;;;;;;;;;5091165;28;20051;-85
2022/06/19 10:45:32;;;;;;;0.30;0.30;;;;;;;;;;5093382;28;20393;-88
2022/06/19 10:48:04;;;;;;;0.17;0.17;;;;;;;;;;5093350;28;20111;-84
2022/06/19 10:50:38;;;;;;;0.22;0.22;;;;;;;;;;5093098;28;20027;-87
2022/06/19 10:53:30;;;;;;;0.17;0.17;;;;;;;;;;5111529;28;20096;-87
2022/06/19 10:56:17;;;;;;;0.32;0.32;;;;;;;;;;5109040;28;20036;-88
2022/06/19 10:58:42;;;;;;;0.20;0.10;;;;;;;;;;5111958;28;20100;-86
2022/06/19 11:04:06;;;;;;;0.10;0.10;;;;;;;;;;5112537;28;20032;-86
2022/06/19 11:04:08;;;;;;;0.88;0.30;;;;;;;;;;5109462;27;20023;-87
2022/06/19 11:06:57;;;;;;;0.20;0.20;;;;;;;;;;5112140;28;20020;-87
2022/06/19 11:09:51;;;;;;;0.30;0.30;;;;;;;;;;5091464;28;20437;-87
2022/06/19 11:12:35;;;;;;;0.68;0.40;;;;;;;;;;5105588;28;20960;-88
2022/06/19 11:15:07;;;;;;;0.28;0.28;;;;;;;;;;5091815;28;20376;-86
2022/06/19 11:17:41;;;;;;;0.20;0.20;;;;;;;;;;5087834;28;20087;-86
2022/06/19 11:20:23;;;;;;;0.20;0.20;;;;;;;;;;5108792;28;20072;-87
2022/06/19 11:22:50;;;;;;;0.25;0.25;;;;;;;;;;5109695;28;20104;-89
2022/06/19 11:25:21;;;;;;;0.10;0.10;;;;;;;;;;5093033;28;20023;-88
2022/06/19 11:27:59;;;;;;;0.20;0.20;;;;;;;;;;5106019;28;20045;-86
2022/06/19 11:30:50;;;;;;;0.60;0.30;;;;;;;;;;5106013;28;20029;-86
2022/06/19 11:33:33;;;;;;;0.68;0.30;;;;;;;;;;5114317;28;20028;-87
2022/06/19 11:36:02;;;;;;;0.22;0.22;;;;;;;;;;5114542;28;20024;-88
2022/06/19 11:38:36;;;;;;;0.82;0.28;;;;;;;;;;5115586;28;20047;-87
2022/06/19 11:41:34;;;;;;;0.45;0.22;;;;;;;;;;5096804;28;20077;-85
2022/06/19 11:44:18;;;;;;;0.75;0.40;;;;;;;;;;5115382;28;20495;-87
2022/06/19 11:46:53;;;;;;;0.35;0.30;;;;;;;;;;5094736;28;20555;-86
2022/06/19 11:49:37;;;;;;;0.22;0.22;;;;;;;;;;5114582;28;20136;-85
2022/06/19 11:52:16;;;;;;;0.10;0.10;;;;;;;;;;5111780;28;20024;-85
2022/06/19 11:54:44;;;;;;;0.17;0.17;;;;;;;;;;5110244;28;20070;-86
2022/06/19 11:57:33;;;;;;;0.20;0.20;;;;;;;;;;5107429;27;20020;-87
2022/06/19 12:00:02;;;;;;;0.40;0.20;;;;;;;;;;5104446;28;20084;-85
2022/06/19 12:02:36;;;;;;;0.60;0.40;;;;;;;;;;5112158;28;20031;-87
2022/06/19 12:05:06;;;;;;;0.28;0.20;;;;;;;;;;5110731;28;20035;-87
2022/06/19 12:07:37;;;;;;;0.68;0.30;;;;;;;;;;5095300;28;20028;-88
2022/06/19 12:10:19;;;;;;;0.20;0.20;;;;;;;;;;5115585;28;20020;-86
2022/06/19 12:12:57;;;;;;;1.08;0.28;;;;;;;;;;5112001;28;20039;-87
2022/06/19 12:15:28;;;;;;;0.20;0.20;;;;;;;;;;5108651;28;20043;-86
2022/06/19 12:18:03;;;;;;;0.50;0.30;;;;;;;;;;5096963;28;20028;-89
2022/06/19 12:20:34;;;;;;;0.43;0.25;;;;;;;;;;5113487;28;20028;-88
2022/06/19 12:23:03;;;;;;;0.08;0.08;;;;;;;;;;5115045;28;20485;-86
2022/06/19 12:25:28;;;;;;;0.20;0.20;;;;;;;;;;5095271;28;20034;-86
2022/06/19 12:28:12;;;;;;;0.30;0.30;;;;;;;;;;5114432;28;20024;-91
2022/06/19 12:30:43;;;;;;;0.30;0.10;;;;;;;;;;5114157;28;20028;-89
2022/06/19 12:33:47;;;;;;;0.22;0.22;;;;;;;;;;5114925;28;20492;-87
2022/06/19 12:36:19;;;;;;;0.82;0.20;;;;;;;;;;5017791;28;20398;-88
2022/06/19 12:38:46;;;;;;;0.77;0.30;;;;;;;;;;5111515;28;20047;-87
2022/06/19 12:41:18;;;;;;;0.20;0.20;;;;;;;;;;5112857;28;20368;-84
2022/06/19 12:44:20;;;;;;;0.20;0.20;;;;;;;;;;5108211;28;20463;-87
2022/06/19 12:46:55;;;;;;;0.20;0.20;;;;;;;;;;5111942;28;20065;-87
2022/06/19 12:49:48;;;;;;;0.43;0.30;;;;;;;;;;5113569;28;20038;-87
2022/06/19 12:52:16;;;;;;;0.22;0.20;;;;;;;;;;5094176;28;20038;-86
2022/06/19 12:54:57;;;;;;;1.25;1.15;;;;;;;;;;5113636;28;20028;-88
2022/06/19 12:57:41;;;;;;;1.40;1.30;;;;;;;;;;5096359;28;20020;-88
2022/06/19 13:00:08;;;;;;;0.40;0.40;;;;;;;;;;5094631;28;20450;-87
2022/06/19 13:02:52;;;;;;;0.30;0.30;;;;;;;;;;5115220;27;20035;-86
2022/06/19 13:05:41;;;;;;;0.20;0.10;;;;;;;;;;5108462;28;20024;-87
2022/06/19 13:08:20;;;;;;;0.30;0.30;;;;;;;;;;5109484;28;20808;-87
2022/06/19 13:10:46;;;;;;;0.32;0.17;;;;;;;;;;5114211;28;20040;-86
2022/06/19 13:13:49;;;;;;;5.15;4.80;;;;;;;;;;5114073;28;20034;-86
2022/06/19 13:16:22;;;;;;;5.53;5.13;;;;;;;;;;5106988;27;20077;-87
2022/06/19 13:18:56;;;;;;;3.30;3.00;;;;;;;;;;5126387;27;20034;-87
2022/06/19 13:21:36;;;;;;;0.40;0.40;;;;;;;;;;5090614;28;20123;-85
2022/06/19 13:24:11;;;;;;;0.40;0.40;;;;;;;;;;5108816;28;20555;-88
2022/06/19 13:30:12;;;;;;;1.17;0.40;;;;;;;;;;5111139;28;20088;-91
2022/06/19 13:32:43;;;;;;;0.40;0.40;;;;;;;;;;5112728;28;20024;-88
2022/06/19 13:35:11;;;;;;;0.50;0.30;;;;;;;;;;5104583;28;20042;-89
2022/06/19 13:37:52;;;;;;;0.20;0.20;;;;;;;;;;5113010;28;20510;-87
2022/06/19 13:40:38;;;;;;;0.95;0.40;;;;;;;;;;5111873;28;20027;-88
2022/06/19 13:43:17;;;;;;;0.35;0.20;;;;;;;;;;5105757;28;20028;-88
2022/06/19 13:46:05;;;;;;;0.73;0.30;;;;;;;;;;5091213;28;20019;-89
2022/06/19 13:48:58;;;;;;;0.20;0.20;;;;;;;;;;5093979;27;20035;-89
2022/06/19 13:52:01;;;;;;;0.20;0.20;;;;;;;;;;5119506;27;20038;-90
2022/06/19 13:54:30;;;;;;;0.10;0.10;;;;;;;;;;5114792;27;20464;-87
2022/06/19 13:56:58;;;;;;;;;;;;;;;;;;5113514;28;20051;-90
2022/06/19 14:00:02;;;;;;;0.22;0.22;;;;;;;;;;5113831;28;20416;-89
2022/06/19 14:03:02;;;;;;;0.17;0.17;;;;;;;;;;5096700;28;20028;-88
2022/06/19 14:05:45;;;;;;;0.40;0.20;;;;;;;;;;5107381;28;20533;-88
2022/06/19 14:08:25;;;;;;;0.40;0.20;;;;;;;;;;5117139;27;20023;-88
2022/06/19 14:11:00;;;;;;;0.10;0.10;;;;;;;;;;5094311;28;20479;-89
2022/06/19 14:13:53;;;;;;;0.20;0.20;;;;;;;;;;5112920;28;20122;-88
2022/06/19 14:16:33;;;;;;;0.35;0.20;;;;;;;;;;5109920;28;20031;-91
2022/06/19 14:19:28;;;;;;;0.52;0.22;;;;;;;;;;5095117;28;20027;-88
2022/06/19 14:22:15;;;;;;;1.17;0.43;;;;;;;;;;5110586;28;20371;-89
2022/06/19 14:25:01;;;;;;;0.30;0.30;;;;;;;;;;5106657;28;20108;-89
2022/06/19 14:27:53;;;;;;;0.57;0.20;;;;;;;;;;5092499;28;20028;-87
2022/06/19 14:30:22;;;;;;;0.20;0.10;;;;;;;;;;5112869;28;20023;-90
2022/06/19 14:32:59;;;;;;;0.30;0.30;;;;;;;;;;5113119;28;20038;-89
2022/06/19 14:35:36;;;;;;;0.30;0.30;;;;;;;;;;5113511;28;20458;-91
2022/06/19 14:38:05;;;;;;;0.22;0.10;;;;;;;;;;5093936;28;20127;-87
2022/06/19 14:40:31;;;;;;;0.47;0.28;;;;;;;;;;5092872;28;20152;-88
2022/06/19 14:43:02;;;;;;;0.30;0.30;;;;;;;;;;5094773;28;20074;-88
2022/06/19 14:45:55;;;;;;;0.50;0.30;;;;;;;;;;5109065;27;20024;-87
2022/06/19 14:48:52;;;;;;;0.30;0.20;;;;;;;;;;5118024;27;20054;-87
2022/06/19 14:51:32;;;;;;;0.35;0.32;;;;;;;;;;5108867;28;20058;-87
2022/06/19 14:54:07;;;;;;;0.43;0.20;;;;;;;;;;5094612;28;20027;-88
2022/06/19 14:56:46;;;;;;;0.45;0.20;;;;;;;;;;5115948;27;20493;-88
2022/06/19 14:59:27;;;;;;;1.02;0.30;;;;;;;;;;5088405;28;20387;-86
2022/06/19 15:01:56;;;;;;;0.77;0.30;;;;;;;;;;5086319;28;20368;-85
2022/06/19 15:04:26;;;;;;;0.43;0.20;;;;;;;;;;5105268;28;20463;-86
2022/06/19 15:07:21;;;;;;;0.20;0.20;;;;;;;;;;5110950;28;20023;-88
2022/06/19 15:10:09;;;;;;;0.90;0.50;;;;;;;;;;5091238;28;20053;-87
2022/06/19 15:12:35;;;;;;;2.70;1.10;;;;;;;;;;5064567;28;20430;-87
2022/06/19 15:15:16;;;;;;;0.52;0.50;;;;;;;;;;5110578;28;20028;-87
2022/06/19 15:17:51;;;;;;;0.20;0.20;;;;;;;;;;5111270;28;20031;-84
2022/06/19 15:20:28;;;;;;;0.40;0.40;;;;;;;;;;5113357;28;20023;-88
2022/06/19 15:23:19;;;;;;;0.57;0.30;;;;;;;;;;5110303;28;20051;-85
2022/06/19 15:25:47;;;;;;;0.20;0.20;;;;;;;;;;5112200;28;20027;-89